Time;durP1;ratioP1;P1;durP2;ratioP2;P2;SDS_P1;SDS_P2;PMS_P1;PMS_P2;Temp;Humidity;BMP_temperature;BMP_pressure;BME280_temperature;BME280_humidity;BME280_pressure;Samples;Min_cycle;Max_cycle;Signal;HPM_P1;HPM_P2
2023/08/26 00:00:41;;;;;;;121.32;42.95;;;;;;;-147.95;100.00;58458.38;5070098;28;20032;-82
2023/08/26 00:03:08;;;;;;;116.05;44.00;;;;;;;-147.95;100.00;58458.38;5072490;28;20032;-81
2023/08/26 00:05:34;;;;;;;125.25;43.55;;;;;;;-147.95;100.00;58458.38;5053839;28;20422;-81
2023/08/26 00:08:00;;;;;;;119.85;43.15;;;;;;;-147.95;100.00;58458.38;5083892;28;20734;-81
2023/08/26 00:10:27;;;;;;;130.35;45.90;;;;;;;-147.95;100.00;58458.38;5052774;28;20115;-82
2023/08/26 00:12:52;;;;;;;118.22;40.75;;;;;;;-147.95;100.00;58458.38;5066534;28;20028;-82
2023/08/26 00:15:18;;;;;;;119.05;45.10;;;;;;;-147.95;100.00;58458.38;5068625;28;20113;-82
2023/08/26 00:17:44;;;;;;;125.55;43.90;;;;;;;-147.95;100.00;58458.38;5082029;28;20028;-82
2023/08/26 00:20:09;;;;;;;127.75;43.47;;;;;;;-147.95;100.00;58458.38;5052469;28;20024;-82
2023/08/26 00:22:38;;;;;;;112.90;41.28;;;;;;;-147.95;100.00;58458.38;5085091;28;20039;-81
2023/08/26 00:25:06;;;;;;;105.55;39.58;;;;;;;-147.95;100.00;58458.38;5082219;28;20036;-81
2023/08/26 00:27:32;;;;;;;84.30;34.00;;;;;;;-147.95;100.00;58458.38;5088089;28;20110;-82
2023/08/26 00:29:57;;;;;;;90.25;34.40;;;;;;;-147.95;100.00;58458.38;5068294;28;20063;-81
2023/08/26 00:32:23;;;;;;;83.13;32.20;;;;;;;-147.95;100.00;58458.38;5066667;28;20090;-81
2023/08/26 00:34:48;;;;;;;79.50;30.45;;;;;;;-147.95;100.00;58458.38;5052897;28;20032;-82
2023/08/26 00:37:13;;;;;;;68.40;28.70;;;;;;;-147.95;100.00;58458.38;5067277;28;20047;-82
2023/08/26 00:39:39;;;;;;;69.95;30.33;;;;;;;-147.95;100.00;58458.38;5052792;28;20021;-82
2023/08/26 00:42:04;;;;;;;66.38;27.83;;;;;;;-147.95;100.00;58458.38;5067942;28;20547;-82
2023/08/26 00:44:30;;;;;;;73.65;28.92;;;;;;;-147.95;100.00;58458.38;5058216;28;20043;-83
2023/08/26 00:46:57;;;;;;;73.38;29.70;;;;;;;-147.95;100.00;58458.38;5051992;28;20032;-82
2023/08/26 00:49:23;;;;;;;81.30;31.23;;;;;;;-147.95;100.00;58458.38;5051061;28;20064;-82
2023/08/26 00:51:50;;;;;;;73.03;30.75;;;;;;;-147.95;100.00;58458.38;5082839;28;20533;-81
2023/08/26 00:54:16;;;;;;;66.57;27.05;;;;;;;-147.95;100.00;58458.38;5063869;28;20039;-81
2023/08/26 00:56:42;;;;;;;46.25;19.95;;;;;;;-147.95;100.00;58458.38;5067949;28;20437;-82
2023/08/26 00:59:08;;;;;;;44.30;15.75;;;;;;;-147.95;100.00;58458.38;5083144;28;20017;-81
2023/08/26 01:01:34;;;;;;;34.53;11.55;;;;;;;-147.95;100.00;58458.38;5088246;28;20035;-81
2023/08/26 01:03:59;;;;;;;32.45;11.70;;;;;;;-147.95;100.00;58458.38;5088348;28;20031;-81
2023/08/26 01:06:25;;;;;;;24.02;9.88;;;;;;;-147.95;100.00;58458.38;5086878;28;20086;-82
2023/08/26 01:08:50;;;;;;;27.42;10.60;;;;;;;-147.95;100.00;58458.38;5072789;28;20047;-82
2023/08/26 01:11:35;;;;;;;29.90;9.85;;;;;;;-147.95;100.00;58458.38;5069948;28;20478;-84
2023/08/26 01:14:29;;;;;;;36.10;11.30;;;;;;;-147.95;100.00;58458.38;5086714;28;20135;-83
2023/08/26 01:16:56;;;;;;;36.53;11.13;;;;;;;-147.95;100.00;58458.38;5072336;28;20039;-84
2023/08/26 01:19:36;;;;;;;26.80;10.70;;;;;;;-147.95;100.00;58458.38;5070697;28;20118;-84
2023/08/26 01:22:05;;;;;;;33.67;9.60;;;;;;;-147.95;100.00;58458.38;5094636;28;20031;-84
2023/08/26 01:24:31;;;;;;;22.67;9.55;;;;;;;-147.95;100.00;58458.38;5090067;28;20114;-84
2023/08/26 01:26:58;;;;;;;24.10;8.40;;;;;;;-147.95;100.00;58458.38;5087502;28;20509;-84
2023/08/26 01:29:23;;;;;;;18.90;8.18;;;;;;;-147.95;100.00;58458.38;5074037;28;20028;-84
2023/08/26 01:32:02;;;;;;;27.58;8.88;;;;;;;-147.95;100.00;58458.38;5068390;28;20055;-84
2023/08/26 01:34:32;;;;;;;28.73;7.57;;;;;;;-147.95;100.00;58458.38;5095433;28;20024;-84
2023/08/26 01:37:00;;;;;;;21.35;6.82;;;;;;;-147.95;100.00;58458.38;5088710;28;20506;-83
2023/08/26 01:39:27;;;;;;;24.08;7.90;;;;;;;-147.95;100.00;58458.38;5085733;28;20020;-83
2023/08/26 01:41:54;;;;;;;18.65;7.80;;;;;;;-147.95;100.00;58458.38;5068441;28;20185;-84
2023/08/26 01:44:20;;;;;;;23.08;7.70;;;;;;;-147.95;100.00;58458.38;5075301;28;20386;-84
2023/08/26 01:46:50;;;;;;;25.05;8.00;;;;;;;-147.95;100.00;58458.38;5070410;28;20091;-84
2023/08/26 01:49:17;;;;;;;21.63;7.55;;;;;;;-147.95;100.00;58458.38;5085556;28;20028;-84
2023/08/26 01:51:43;;;;;;;26.52;7.88;;;;;;;-147.95;100.00;58458.38;5072508;28;20043;-84
2023/08/26 01:54:09;;;;;;;24.80;8.88;;;;;;;-147.95;100.00;58458.38;5056210;28;20402;-85
2023/08/26 01:56:34;;;;;;;29.17;7.30;;;;;;;-147.95;100.00;58458.38;5107204;28;20024;-84
2023/08/26 01:59:01;;;;;;;21.23;6.70;;;;;;;-147.95;100.00;58458.38;5089779;28;20024;-84
2023/08/26 02:01:26;;;;;;;22.88;9.07;;;;;;;-147.95;100.00;58458.38;5084580;28;20382;-84
2023/08/26 02:03:52;;;;;;;19.63;6.75;;;;;;;-147.95;100.00;58458.38;5072353;28;20032;-84
2023/08/26 02:06:18;;;;;;;20.15;7.35;;;;;;;-147.95;100.00;58458.38;5088671;28;20115;-84
2023/08/26 02:08:44;;;;;;;17.98;7.47;;;;;;;-147.95;100.00;58458.38;5090467;28;20111;-83
2023/08/26 02:11:10;;;;;;;21.55;7.95;;;;;;;-147.95;100.00;58458.38;5089317;28;20034;-84
2023/08/26 02:13:36;;;;;;;21.10;6.45;;;;;;;-147.95;100.00;58458.38;5085358;28;20041;-84
2023/08/26 02:16:02;;;;;;;21.27;7.03;;;;;;;-147.95;100.00;58458.38;5089432;28;20044;-83
2023/08/26 02:18:27;;;;;;;22.77;6.20;;;;;;;-147.95;100.00;58458.38;5072316;28;20483;-83
2023/08/26 02:20:54;;;;;;;20.23;5.35;;;;;;;-147.95;100.00;58458.38;5069467;28;20043;-81
2023/08/26 02:23:20;;;;;;;16.92;6.20;;;;;;;-147.95;100.00;58458.38;5080782;28;20502;-82
2023/08/26 02:25:46;;;;;;;23.75;6.50;;;;;;;-147.95;100.00;58458.38;5084978;28;20121;-81
2023/08/26 02:28:13;;;;;;;17.98;5.20;;;;;;;-147.95;100.00;58458.38;5084917;28;20479;-81
2023/08/26 02:30:39;;;;;;;12.57;4.82;;;;;;;-147.95;100.00;58458.38;5087315;28;20031;-81
2023/08/26 02:33:06;;;;;;;11.77;5.38;;;;;;;-147.95;100.00;58458.38;5082659;28;20036;-81
2023/08/26 02:35:33;;;;;;;24.33;5.82;;;;;;;-147.95;100.00;58458.38;5084044;28;20047;-81
2023/08/26 02:37:58;;;;;;;20.05;5.65;;;;;;;-147.95;100.00;58458.38;5085756;28;20455;-80
2023/08/26 02:40:24;;;;;;;20.85;5.45;;;;;;;-147.95;100.00;58458.38;5078429;28;20123;-80
2023/08/26 02:42:51;;;;;;;15.73;5.80;;;;;;;-147.95;100.00;58458.38;5067422;28;20062;-80
2023/08/26 02:45:16;;;;;;;20.50;6.07;;;;;;;-147.95;100.00;58458.38;5080776;28;20035;-80
2023/08/26 02:47:42;;;;;;;13.50;5.47;;;;;;;-147.95;100.00;58458.38;5053911;28;20397;-81
2023/08/26 02:50:07;;;;;;;19.13;6.75;;;;;;;-147.95;100.00;58458.38;5083873;28;20036;-81
2023/08/26 02:52:33;;;;;;;20.98;6.32;;;;;;;-147.95;100.00;58458.38;5085238;28;20502;-80
2023/08/26 02:55:02;;;;;;;19.65;6.20;;;;;;;-147.95;100.00;58458.38;5066267;28;20024;-80
2023/08/26 02:57:28;;;;;;;13.60;5.90;;;;;;;-147.95;100.00;58458.38;5084774;28;20090;-81
2023/08/26 02:59:54;;;;;;;21.92;6.63;;;;;;;-147.95;100.00;58458.38;5071424;28;20027;-81
2023/08/26 03:02:24;;;;;;;20.50;7.35;;;;;;;-147.95;100.00;58458.38;5085198;28;20090;-81
2023/08/26 03:04:50;;;;;;;25.15;6.38;;;;;;;-147.95;100.00;58458.38;5054830;28;20024;-81
2023/08/26 03:07:16;;;;;;;20.17;5.60;;;;;;;-147.95;100.00;58458.38;5064235;28;20032;-81
2023/08/26 03:09:41;;;;;;;19.00;6.10;;;;;;;-147.95;100.00;58458.38;5049116;28;20089;-81
2023/08/26 03:12:08;;;;;;;13.88;5.50;;;;;;;-147.95;100.00;58458.38;5087036;28;20093;-81
2023/08/26 03:14:33;;;;;;;11.40;5.15;;;;;;;-147.95;100.00;58458.38;5067443;28;20040;-81
2023/08/26 03:17:00;;;;;;;15.00;6.00;;;;;;;-147.95;100.00;58458.38;5061137;28;20038;-81
2023/08/26 03:19:27;;;;;;;19.45;6.25;;;;;;;-147.95;100.00;58458.38;5068005;28;20486;-81
2023/08/26 03:21:52;;;;;;;14.57;5.30;;;;;;;-147.95;100.00;58458.38;5088342;28;20497;-81
2023/08/26 03:24:18;;;;;;;20.55;7.50;;;;;;;-147.95;100.00;58458.38;5051113;28;20032;-81
2023/08/26 03:26:45;;;;;;;18.52;6.38;;;;;;;-147.95;100.00;58458.38;5068348;28;20047;-81
2023/08/26 03:29:12;;;;;;;14.13;6.35;;;;;;;-147.95;100.00;58458.38;5070597;28;20051;-83
2023/08/26 03:31:39;;;;;;;17.42;5.97;;;;;;;-147.95;100.00;58458.38;5081398;28;20040;-83
2023/08/26 03:34:05;;;;;;;19.42;5.80;;;;;;;-147.95;100.00;58458.38;5063456;28;20028;-83
2023/08/26 03:36:30;;;;;;;18.48;6.40;;;;;;;-147.95;100.00;58458.38;5071988;28;20051;-83
2023/08/26 03:38:56;;;;;;;19.17;5.85;;;;;;;-147.95;100.00;58458.38;5086938;28;20077;-84
2023/08/26 03:41:21;;;;;;;14.60;5.50;;;;;;;-147.95;100.00;58458.38;5068889;28;20398;-84
2023/08/26 03:43:46;;;;;;;21.55;6.30;;;;;;;-147.95;100.00;58458.38;5066399;28;20024;-84
2023/08/26 03:46:12;;;;;;;17.02;5.97;;;;;;;-147.95;100.00;58458.38;5082255;28;20482;-84
2023/08/26 03:48:38;;;;;;;12.88;5.43;;;;;;;-147.95;100.00;58458.38;5053844;28;20028;-84
2023/08/26 03:51:03;;;;;;;12.15;5.30;;;;;;;-147.95;100.00;58458.38;5085908;28;20035;-83
2023/08/26 03:53:29;;;;;;;12.40;5.45;;;;;;;-147.95;100.00;58458.38;5067844;28;20122;-84
2023/08/26 03:55:56;;;;;;;14.50;5.78;;;;;;;-147.95;100.00;58458.38;5086870;28;20451;-83
2023/08/26 03:58:26;;;;;;;17.98;5.68;;;;;;;-147.95;100.00;58458.38;5083411;28;20506;-83
2023/08/26 04:01:00;;;;;;;18.35;6.00;;;;;;;-147.95;100.00;58458.38;5066451;28;20036;-84
2023/08/26 04:03:25;;;;;;;14.18;5.35;;;;;;;-147.95;100.00;58458.38;5080845;28;20403;-84
2023/08/26 04:05:57;;;;;;;14.30;5.18;;;;;;;-147.95;100.00;58458.38;5088076;28;20028;-83
2023/08/26 04:08:23;;;;;;;14.57;5.60;;;;;;;-147.95;100.00;58458.38;5087009;28;20036;-83
2023/08/26 04:10:48;;;;;;;19.67;5.60;;;;;;;-147.95;100.00;58458.38;5069480;28;20039;-83
2023/08/26 04:13:25;;;;;;;17.30;5.60;;;;;;;-147.95;100.00;58458.38;5051098;28;20040;-84
2023/08/26 04:15:56;;;;;;;20.35;5.80;;;;;;;-147.95;100.00;58458.38;5085100;28;20394;-83
2023/08/26 04:18:22;;;;;;;15.88;4.68;;;;;;;-147.95;100.00;58458.38;5086235;28;20423;-83
2023/08/26 04:20:48;;;;;;;32.35;5.70;;;;;;;-147.95;100.00;58458.38;5087922;28;20036;-83
2023/08/26 04:23:14;;;;;;;23.08;5.20;;;;;;;-147.95;100.00;58458.38;5084431;28;20627;-83
2023/08/26 04:25:42;;;;;;;14.70;5.13;;;;;;;-147.95;100.00;58458.38;5070382;28;20025;-84
2023/08/26 04:28:08;;;;;;;20.67;5.70;;;;;;;-147.95;100.00;58458.38;5068964;28;20024;-83
2023/08/26 04:30:36;;;;;;;11.68;4.88;;;;;;;-147.95;100.00;58458.38;5084011;28;20086;-83
2023/08/26 04:33:01;;;;;;;14.77;5.22;;;;;;;-147.95;100.00;58458.38;5083604;28;20058;-83
2023/08/26 04:35:27;;;;;;;25.15;5.32;;;;;;;-147.95;100.00;58458.38;5087561;28;20482;-84
2023/08/26 04:37:52;;;;;;;22.15;5.28;;;;;;;-147.95;100.00;58458.38;5071895;28;20090;-84
2023/08/26 04:40:18;;;;;;;19.27;5.45;;;;;;;-147.95;100.00;58458.38;5068825;28;20077;-81
2023/08/26 04:42:44;;;;;;;17.48;5.05;;;;;;;-147.95;100.00;58458.38;5090577;28;20153;-81
2023/08/26 04:45:10;;;;;;;21.30;5.80;;;;;;;-147.95;100.00;58458.38;5073439;28;20115;-81
2023/08/26 04:47:38;;;;;;;17.38;5.28;;;;;;;-147.95;100.00;58458.38;5091946;28;20028;-81
2023/08/26 04:50:04;;;;;;;14.57;4.88;;;;;;;-147.95;100.00;58458.38;5058880;28;20097;-81
2023/08/26 04:52:29;;;;;;;18.17;5.70;;;;;;;-147.95;100.00;58458.38;5069777;28;20494;-82
2023/08/26 04:54:58;;;;;;;23.58;5.55;;;;;;;-147.95;100.00;58458.38;5069809;28;20033;-81
2023/08/26 04:57:23;;;;;;;22.90;5.45;;;;;;;-147.95;100.00;58458.38;5073886;28;20032;-80
2023/08/26 04:59:49;;;;;;;24.00;5.45;;;;;;;-147.95;100.00;58458.38;5077401;28;20028;-81
2023/08/26 05:02:14;;;;;;;11.45;3.95;;;;;;;-147.95;100.00;58458.38;5086336;28;20028;-81
2023/08/26 05:04:44;;;;;;;27.48;6.40;;;;;;;-147.95;100.00;58458.38;5073591;28;20118;-81
2023/08/26 05:07:10;;;;;;;22.63;5.15;;;;;;;-147.95;100.00;58458.38;5079301;28;20051;-80
2023/08/26 05:09:36;;;;;;;25.00;5.43;;;;;;;-147.95;100.00;58458.38;5092429;28;20123;-81
2023/08/26 05:12:03;;;;;;;28.67;5.50;;;;;;;-147.95;100.00;58458.38;5068888;28;20032;-81
2023/08/26 05:14:28;;;;;;;21.65;4.82;;;;;;;-147.95;100.00;58458.38;5057465;28;20028;-80
2023/08/26 05:16:54;;;;;;;21.73;5.95;;;;;;;-147.95;100.00;58458.38;5088678;28;20467;-81
2023/08/26 05:19:19;;;;;;;21.92;5.70;;;;;;;-147.95;100.00;58458.38;5056332;28;20035;-80
2023/08/26 05:21:45;;;;;;;15.15;5.32;;;;;;;-147.95;100.00;58458.38;5087468;28;20031;-80
2023/08/26 05:24:10;;;;;;;19.92;5.55;;;;;;;-147.95;100.00;58458.38;5065124;28;20040;-80
2023/08/26 05:26:37;;;;;;;24.08;7.68;;;;;;;-147.95;100.00;58458.38;5064221;28;20051;-81
2023/08/26 05:29:04;;;;;;;15.05;4.68;;;;;;;-147.95;100.00;58458.38;5076506;28;20036;-80
2023/08/26 05:31:32;;;;;;;20.73;4.82;;;;;;;-147.95;100.00;58458.38;5065225;28;20185;-80
2023/08/26 05:34:00;;;;;;;23.65;5.72;;;;;;;-147.95;100.00;58458.38;5071255;28;20081;-80
2023/08/26 05:36:25;;;;;;;22.23;4.97;;;;;;;-147.95;100.00;58458.38;5093480;28;20032;-81
2023/08/26 05:38:51;;;;;;;17.77;5.05;;;;;;;-147.95;100.00;58458.38;5082703;28;20031;-78
2023/08/26 05:41:16;;;;;;;20.38;5.32;;;;;;;-147.95;100.00;58458.38;5082081;28;20039;-81
2023/08/26 05:43:43;;;;;;;19.00;5.50;;;;;;;-147.95;100.00;58458.38;5072696;28;20498;-82
2023/08/26 05:46:08;;;;;;;15.95;4.82;;;;;;;-147.95;100.00;58458.38;5085133;28;20032;-80
2023/08/26 05:48:34;;;;;;;19.45;4.97;;;;;;;-147.95;100.00;58458.38;5068397;28;20093;-80
2023/08/26 05:50:59;;;;;;;21.98;5.55;;;;;;;-147.95;100.00;58458.38;5054747;28;20028;-80
2023/08/26 05:53:29;;;;;;;17.52;4.35;;;;;;;-147.95;100.00;58458.38;5088826;28;20139;-81
2023/08/26 05:55:55;;;;;;;17.27;4.55;;;;;;;-147.95;100.00;58458.38;5082449;28;20036;-80
2023/08/26 05:58:22;;;;;;;15.43;4.25;;;;;;;-147.95;100.00;58458.38;5079947;28;20035;-80
2023/08/26 06:00:48;;;;;;;16.23;4.72;;;;;;;-147.95;100.00;58458.38;5083301;28;20032;-80
2023/08/26 06:03:13;;;;;;;15.88;4.28;;;;;;;-147.95;100.00;58458.38;5077624;28;20024;-81
2023/08/26 06:05:38;;;;;;;15.32;4.13;;;;;;;-147.95;100.00;58458.38;5085749;28;20036;-82
2023/08/26 06:08:07;;;;;;;19.10;5.05;;;;;;;-147.95;100.00;58458.38;5082162;28;20418;-81
2023/08/26 06:10:33;;;;;;;11.25;3.75;;;;;;;-147.95;100.00;58458.38;5072207;28;20126;-81
2023/08/26 06:12:58;;;;;;;12.45;3.95;;;;;;;-147.95;100.00;58458.38;5050353;28;20138;-81
2023/08/26 06:15:24;;;;;;;19.60;3.40;;;;;;;-147.95;100.00;58458.38;5087185;28;20028;-81
2023/08/26 06:17:53;;;;;;;13.63;3.25;;;;;;;-147.95;100.00;58458.38;5088215;28;20031;-82
2023/08/26 06:20:22;;;;;;;10.35;3.03;;;;;;;-147.95;100.00;58458.38;5087517;28;20024;-82
2023/08/26 06:22:50;;;;;;;11.07;3.85;;;;;;;-147.95;100.00;58458.38;5083679;28;20108;-81
2023/08/26 06:25:16;;;;;;;10.15;3.13;;;;;;;-147.95;100.00;58458.38;5090441;28;20032;-80
2023/08/26 06:27:41;;;;;;;14.55;4.78;;;;;;;-147.95;100.00;58458.38;5068998;28;20094;-80
2023/08/26 06:30:08;;;;;;;9.23;2.88;;;;;;;-147.95;100.00;58458.38;5066345;28;20024;-80
2023/08/26 06:32:34;;;;;;;11.07;3.10;;;;;;;-147.95;100.00;58458.38;5059361;28;20486;-80
2023/08/26 06:35:00;;;;;;;13.73;2.90;;;;;;;-147.95;100.00;58458.38;5079089;28;20039;-80
2023/08/26 06:37:27;;;;;;;8.80;3.28;;;;;;;-147.95;100.00;58458.38;5081032;28;20032;-82
2023/08/26 06:39:53;;;;;;;8.52;2.70;;;;;;;-147.95;100.00;58458.38;5085576;28;20113;-81
2023/08/26 06:42:20;;;;;;;5.63;2.40;;;;;;;-147.95;100.00;58458.38;5086338;28;20482;-82
2023/08/26 06:44:47;;;;;;;8.63;2.58;;;;;;;-147.95;100.00;58458.38;5050790;28;20036;-81
2023/08/26 06:47:12;;;;;;;13.30;2.85;;;;;;;-147.95;100.00;58458.38;5069914;28;20031;-81
2023/08/26 06:49:38;;;;;;;14.65;2.75;;;;;;;-147.95;100.00;58458.38;5065158;28;20036;-80
2023/08/26 06:52:04;;;;;;;13.80;2.55;;;;;;;-147.95;100.00;58458.38;5056769;28;20044;-80
2023/08/26 06:54:29;;;;;;;9.15;3.30;;;;;;;-147.95;100.00;58458.38;5065631;28;20024;-80
2023/08/26 06:56:55;;;;;;;11.40;2.90;;;;;;;-147.95;100.00;58458.38;5072610;28;20027;-81
2023/08/26 06:59:20;;;;;;;5.68;2.50;;;;;;;-147.95;100.00;58458.38;5077566;28;20028;-81
2023/08/26 07:01:47;;;;;;;16.17;2.45;;;;;;;-147.95;100.00;58458.38;5071646;28;20023;-81
2023/08/26 07:04:12;;;;;;;7.45;2.45;;;;;;;-147.95;100.00;58458.38;5074763;28;20162;-81
2023/08/26 07:06:38;;;;;;;10.05;2.42;;;;;;;-147.95;100.00;58458.38;5088819;28;20115;-80
2023/08/26 07:09:04;;;;;;;8.40;2.08;;;;;;;-147.95;100.00;58458.38;5088250;28;20036;-81
2023/08/26 07:11:32;;;;;;;6.22;2.00;;;;;;;-147.95;100.00;58458.38;5072867;28;20021;-81
2023/08/26 07:13:58;;;;;;;5.28;1.98;;;;;;;-147.95;100.00;58458.38;5091212;28;20024;-81
2023/08/26 07:16:28;;;;;;;7.35;2.20;;;;;;;-147.95;100.00;58458.38;5070656;28;20028;-81
2023/08/26 07:18:53;;;;;;;10.90;2.58;;;;;;;-147.95;100.00;58458.38;5085775;28;20055;-80
2023/08/26 07:21:19;;;;;;;3.63;1.48;;;;;;;-147.95;100.00;58458.38;5082961;28;20451;-81
2023/08/26 07:23:44;;;;;;;8.77;1.92;;;;;;;-147.95;100.00;58458.38;5081035;28;20508;-81
2023/08/26 07:26:13;;;;;;;7.95;2.03;;;;;;;-147.95;100.00;58458.38;5081455;28;20031;-81
2023/08/26 07:28:38;;;;;;;7.63;1.95;;;;;;;-147.95;100.00;58458.38;5087537;28;20116;-81
2023/08/26 07:31:05;;;;;;;7.90;1.90;;;;;;;-147.95;100.00;58458.38;5074711;28;20055;-81
2023/08/26 07:33:32;;;;;;;7.82;1.55;;;;;;;-147.95;100.00;58458.38;5071681;28;20520;-81
2023/08/26 07:36:08;;;;;;;11.05;1.83;;;;;;;-147.95;100.00;58458.38;5082881;28;20026;-81
2023/08/26 07:38:34;;;;;;;10.20;1.75;;;;;;;-147.95;100.00;58458.38;5081602;28;20024;-81
2023/08/26 07:41:00;;;;;;;8.35;2.17;;;;;;;-147.95;100.00;58458.38;5084927;28;20056;-81
2023/08/26 07:43:26;;;;;;;5.70;1.35;;;;;;;-147.95;100.00;58458.38;5087353;28;20016;-81
2023/08/26 07:45:51;;;;;;;4.03;1.50;;;;;;;-147.95;100.00;58458.38;5088241;28;20092;-81
2023/08/26 07:48:17;;;;;;;7.45;1.48;;;;;;;-147.95;100.00;58458.38;5087255;28;20029;-83
2023/08/26 07:50:44;;;;;;;5.68;1.52;;;;;;;-147.95;100.00;58458.38;5072183;28;20089;-81
2023/08/26 07:53:11;;;;;;;10.20;1.80;;;;;;;-147.95;100.00;58458.38;5088206;28;20062;-81
2023/08/26 07:55:37;;;;;;;12.75;1.42;;;;;;;-147.95;100.00;58458.38;5071616;28;20077;-80
2023/08/26 07:58:03;;;;;;;9.13;1.70;;;;;;;-147.95;100.00;58458.38;5063894;28;20050;-81
2023/08/26 08:00:29;;;;;;;6.60;1.60;;;;;;;-147.95;100.00;58458.38;5080754;28;20399;-81
2023/08/26 08:02:57;;;;;;;5.50;1.30;;;;;;;-147.95;100.00;58458.38;5085133;28;20058;-80
2023/08/26 08:05:22;;;;;;;8.13;1.48;;;;;;;-147.95;100.00;58458.38;5082973;28;20065;-81
2023/08/26 08:07:48;;;;;;;11.48;1.95;;;;;;;-147.95;100.00;58458.38;5089227;28;20028;-81
2023/08/26 08:10:13;;;;;;;7.72;1.40;;;;;;;-147.95;100.00;58458.38;5087185;28;20544;-83
2023/08/26 08:12:39;;;;;;;6.57;1.45;;;;;;;-147.95;100.00;58458.38;5086726;28;20456;-83
2023/08/26 08:15:05;;;;;;;8.50;1.15;;;;;;;-147.95;100.00;58458.38;5091229;28;20105;-83
2023/08/26 08:17:33;;;;;;;10.43;1.52;;;;;;;-147.95;100.00;58458.38;5088892;28;20062;-83
2023/08/26 08:19:58;;;;;;;13.68;1.45;;;;;;;-147.95;100.00;58458.38;5090472;28;20050;-82
2023/08/26 08:22:39;;;;;;;5.43;1.23;;;;;;;-147.95;100.00;58458.38;5088827;28;20051;-83
2023/08/26 08:25:05;;;;;;;6.25;1.23;;;;;;;-147.95;100.00;58458.38;5088627;28;20124;-83
2023/08/26 08:27:31;;;;;;;12.35;1.20;;;;;;;-147.95;100.00;58458.38;5077901;28;20036;-84
2023/08/26 08:29:58;;;;;;;13.10;1.13;;;;;;;-147.95;100.00;58458.38;5075999;28;20038;-84
2023/08/26 08:32:24;;;;;;;8.48;1.50;;;;;;;-147.95;100.00;58458.38;5085933;28;20082;-83
2023/08/26 08:34:49;;;;;;;6.78;1.00;;;;;;;-147.95;100.00;58458.38;5090532;28;20031;-84
2023/08/26 08:37:15;;;;;;;8.43;1.20;;;;;;;-147.95;100.00;58458.38;5083558;28;20029;-84
2023/08/26 08:39:40;;;;;;;13.48;1.23;;;;;;;-147.95;100.00;58458.38;5093261;28;20016;-83
2023/08/26 08:42:09;;;;;;;10.32;1.58;;;;;;;-147.95;100.00;58458.38;5086958;28;20024;-83
2023/08/26 08:44:38;;;;;;;7.15;1.13;;;;;;;-147.95;100.00;58458.38;5088264;28;20498;-84
2023/08/26 08:47:04;;;;;;;8.73;1.17;;;;;;;-147.95;100.00;58458.38;5083764;28;20017;-84
2023/08/26 08:49:30;;;;;;;5.65;1.02;;;;;;;-147.95;100.00;58458.38;5086192;28;20028;-83
2023/08/26 08:54:54;;;;;;;5.55;1.17;;;;;;;-147.95;100.00;58458.38;5092086;28;20108;-84
2023/08/26 08:57:27;;;;;;;7.68;1.10;;;;;;;-147.95;100.00;58458.38;5072393;28;20028;-84
2023/08/26 08:59:54;;;;;;;7.00;1.00;;;;;;;-147.95;100.00;58458.38;5089861;28;20033;-83
2023/08/26 09:02:19;;;;;;;5.97;1.10;;;;;;;-147.95;100.00;58458.38;5091462;28;20086;-82
2023/08/26 09:04:45;;;;;;;9.82;1.23;;;;;;;-147.95;100.00;58458.38;5092470;28;20036;-83
2023/08/26 09:07:13;;;;;;;4.68;1.00;;;;;;;-147.95;100.00;58458.38;5087204;28;20033;-84
2023/08/26 09:09:39;;;;;;;5.40;0.98;;;;;;;-147.95;100.00;58458.38;5088301;28;20079;-83
2023/08/26 09:12:06;;;;;;;3.40;1.00;;;;;;;-147.95;100.00;58458.38;5087621;28;20032;-83
2023/08/26 09:14:33;;;;;;;7.03;0.90;;;;;;;-147.95;100.00;58458.38;5090135;28;20062;-83
2023/08/26 09:17:14;;;;;;;7.65;1.38;;;;;;;-147.95;100.00;58458.38;5086998;28;20490;-83
2023/08/26 09:19:51;;;;;;;10.15;1.00;;;;;;;-147.95;100.00;58458.38;5070282;28;20058;-81
2023/08/26 09:22:18;;;;;;;9.07;1.08;;;;;;;-147.95;100.00;58458.38;5090506;28;20028;-81
2023/08/26 09:24:43;;;;;;;7.32;0.90;;;;;;;-147.95;100.00;58458.38;5082890;28;20462;-81
2023/08/26 09:27:09;;;;;;;6.13;0.93;;;;;;;-147.95;100.00;58458.38;5084884;28;20062;-81
2023/08/26 09:29:38;;;;;;;3.60;1.02;;;;;;;-147.95;100.00;58458.38;5088222;28;20040;-81
2023/08/26 09:32:03;;;;;;;6.90;1.58;;;;;;;-147.95;100.00;58458.38;5089617;28;20076;-81
2023/08/26 09:34:31;;;;;;;7.05;0.90;;;;;;;-147.95;100.00;58458.38;5080333;28;20040;-81
2023/08/26 09:36:56;;;;;;;5.65;1.00;;;;;;;-147.95;100.00;58458.38;5065589;28;20029;-80
2023/08/26 09:39:22;;;;;;;2.67;0.70;;;;;;;-147.95;100.00;58458.38;5086929;28;20040;-80
2023/08/26 09:41:48;;;;;;;6.45;0.77;;;;;;;-147.95;100.00;58458.38;5072856;28;20118;-80
2023/08/26 09:44:16;;;;;;;5.13;1.00;;;;;;;-147.95;100.00;58458.38;5086029;28;20028;-80
2023/08/26 09:46:42;;;;;;;0.95;0.50;;;;;;;-147.95;100.00;58458.38;5092313;28;20034;-80
2023/08/26 09:49:16;;;;;;;2.95;0.70;;;;;;;-147.95;100.00;58458.38;5089530;28;20500;-80
2023/08/26 09:51:46;;;;;;;2.83;0.80;;;;;;;-147.95;100.00;58458.38;5089919;28;20424;-80
2023/08/26 09:54:14;;;;;;;3.35;0.77;;;;;;;-147.95;100.00;58458.38;5086667;28;20542;-80
2023/08/26 09:56:40;;;;;;;3.40;0.90;;;;;;;-147.95;100.00;58458.38;5086891;28;20032;-80
2023/08/26 09:59:06;;;;;;;2.00;0.70;;;;;;;-147.95;100.00;58458.38;5055032;28;20027;-80
2023/08/26 10:01:34;;;;;;;2.88;0.68;;;;;;;-147.95;100.00;58458.38;5092972;28;20478;-79
2023/08/26 10:04:08;;;;;;;5.20;0.90;;;;;;;-147.95;100.00;58458.38;5086163;28;20081;-80
2023/08/26 10:06:42;;;;;;;4.60;0.50;;;;;;;-147.95;100.00;58458.38;5087645;28;20020;-80
2023/08/26 10:09:15;;;;;;;4.25;0.75;;;;;;;-147.95;100.00;58458.38;5084927;28;20031;-80
2023/08/26 10:11:43;;;;;;;3.92;0.70;;;;;;;-147.95;100.00;58458.38;5082862;28;20043;-80
2023/08/26 10:14:13;;;;;;;5.38;0.93;;;;;;;-147.95;100.00;58458.38;5084692;28;20024;-80
2023/08/26 10:16:41;;;;;;;5.57;0.90;;;;;;;-147.95;100.00;58458.38;5086780;28;20398;-80
2023/08/26 10:19:07;;;;;;;4.95;0.80;;;;;;;-147.95;100.00;58458.38;5089497;28;20161;-79
2023/08/26 10:21:34;;;;;;;3.63;0.80;;;;;;;-147.95;100.00;58458.38;5085190;28;20043;-79
2023/08/26 10:24:00;;;;;;;3.67;1.40;;;;;;;-147.95;100.00;58458.38;5081153;28;20025;-80
2023/08/26 10:26:27;;;;;;;4.13;0.80;;;;;;;-147.95;100.00;58458.38;5087555;28;20478;-80
2023/08/26 10:28:55;;;;;;;5.00;1.00;;;;;;;-147.95;100.00;58458.38;5077894;28;20089;-79
2023/08/26 10:31:20;;;;;;;3.90;0.88;;;;;;;-147.95;100.00;58458.38;5088231;28;20031;-80
2023/08/26 10:34:13;;;;;;;4.20;0.95;;;;;;;-147.95;100.00;58458.38;5086382;28;20028;-80
2023/08/26 10:36:45;;;;;;;10.45;0.60;;;;;;;-147.95;100.00;58458.38;5086724;28;20122;-79
2023/08/26 10:39:21;;;;;;;2.93;0.70;;;;;;;-147.95;100.00;58458.38;5086961;28;20016;-79
2023/08/26 10:42:09;;;;;;;6.38;1.05;;;;;;;-147.95;100.00;58458.38;5084241;28;20019;-80
2023/08/26 10:44:44;;;;;;;4.82;1.00;;;;;;;-147.95;100.00;58458.38;5081602;28;20509;-80
2023/08/26 10:47:11;;;;;;;8.05;1.00;;;;;;;-147.95;100.00;58458.38;5088788;28;20020;-80
2023/08/26 10:49:37;;;;;;;6.13;1.08;;;;;;;-147.95;100.00;58458.38;5079056;28;20038;-80
2023/08/26 10:52:18;;;;;;;7.78;0.90;;;;;;;-147.95;100.00;58458.38;5079142;28;20126;-80
2023/08/26 10:54:45;;;;;;;5.07;1.20;;;;;;;-147.95;100.00;58458.38;5084981;28;20490;-79
2023/08/26 10:57:11;;;;;;;6.10;0.90;;;;;;;-147.95;100.00;58458.38;5087283;28;20111;-81
2023/08/26 10:59:39;;;;;;;4.32;0.85;;;;;;;-147.95;100.00;58458.38;5086959;28;20451;-80
2023/08/26 11:02:09;;;;;;;5.45;0.73;;;;;;;-147.95;100.00;58458.38;5080676;28;20027;-80
2023/08/26 11:04:42;;;;;;;2.60;0.88;;;;;;;-147.95;100.00;58458.38;5071656;28;20024;-80